Sabadell, Spain

2:26 PM CEST on October 20, 2014 (GMT +0200)
Bellaterra | Change Station
CLOSE
Current Station
Personal Weather Station
Location: Sardañola Del Vallés, CATALUñA
Elevation: 512 ft
Nearby Weather Stations

Elev 512 ft 41.50 °N, 2.09 °E | Updated 6 seconds ago

Clear
Clear
81.5 °F
Feels Like 82 °F
N
3.6
Wind Variable Wind from ENE
Gusts 4.9 mph

Today
High -- | Low -- °F
--% Chance of Precip.
Yesterday
High -- | Low -- °F
Precip. -- in
8:08 AM 7:03 PM
Waning Crescent, 11% visible
Pressure 30.15 in
Visibility -9999.0 miles
Clouds
Heat Index 82 °F
Dew Point 59 °F
Humidity 47%
Rainfall 0.00 in
Snow Depth Not available.
UV 3.0 out of 12
Pollen Not available.
Air Quality Not available.
Flu Activity Not available.
METAR LELL 201200Z 20005KT 160V240 CAVOK 27/15 Q1021

More Conditions Fewer Conditions

Pressure 30.15 in
Visibility -9999.0 miles
Clouds
Heat Index 82 °F
Dew Point 59 °F
Humidity 47%
Rainfall 0.00 in
Snow Depth Not available.
UV 3.0 out of 12
Pollen Not available.
Air Quality Not available.
Flu Activity Not available.
METAR LELL 201200Z 20005KT 160V240 CAVOK 27/15 Q1021

More Conditions Fewer Conditions

10-Day Weather Forecast

Almanac

Astronomy

Oct. 20, 2014 Rise Set
Actual Time 8:08 AM CEST 7:03 PM CEST
Civil Twilight 7:40 AM CEST 7:31 PM CEST
Nautical Twilight 7:08 AM CEST 8:03 PM CEST
Astronomical Twilight 6:36 AM CEST 8:35 PM CEST
Moon 4:40 AM CEST 5:20 PM CEST
Length of Visible Light 11h 50m
Length of Day
10h 54m
Tomorrow will be 2m 38s shorter.
Waning Crescent, 11% of the Moon is Illuminated
Today
Waning Crescent
Oct 23
New
Oct 30
First Quarter
Nov 6
Full
Nov 14
Last Quarter

Yesterday's Extremes

Country Highs Country Lows

Community

WunderPhotos

Upload Photos

1,763,349 photos uploaded!

WunderBlogs® & News

Nearby

Snow Depth

Not available.

Earthquake Activity

City Distance Mag. Time & Date
No recent earthquake activity has been reported nearby.
Minimum magnitude displayed is 2.5.

Coastal Water Temperatures

Place Temperature
No Stations Reporting

Nearby Weather Stations